»·PEaware :: SWA4096 KOAK-KSEA

SWA4096 :: KOAK-KSEA

FLIGHT INFORMATION

Flight Status: Arrived
Operator:
Southwest Airlines
More flights by this operator :: More flights under this callsign
Pilot: Leszek K. (20637)
Aircraft: BOEING 737-800
(B738)
More flights by this aircraft type
Origin: KOAK Metro Oakland Intl
United States
Destination: KSEA Seattle-Tacoma Intl
United States
More flights between these airports :: More routes between these airports
Route: OAK5 OAK DEDHD RBL LMT HAWKZ7
File this flight plan on PilotEdge
Remarks:
Altitude:
(Current/Filed)
40,000ft
Speed:
(Current/Filed)
450kts
Departed: 04-Feb-21 08:34 PM
Arrived: 04-Feb-21 10:21 PM
Distance/Time
Traveled:
583nm/1:47
Distance/Time
To Go:
Arrived

Flight Plot

Page will automatically refresh every two minutes.

Flight plan parsing failed; only flown route is shown


Map Options




Map Legend


Flown Route
Filed Route
Departure Airport
Arrival Airport
Navaid (VOR, NDB)
Fix

Horizontal Profiles

Position Reports

Time Latitude Longitude Heading Altitude Ground
Speed
04-Feb-21 20:17 37.711092 -122.214494 318 17ft 0kts
04-Feb-21 20:18 37.711092 -122.214494 318 17ft 0kts
04-Feb-21 20:19 37.711092 -122.214494 318 17ft 0kts
04-Feb-21 20:20 37.711092 -122.214494 318 17ft 0kts
04-Feb-21 20:21 37.711092 -122.214494 318 17ft 0kts
04-Feb-21 20:22 37.711092 -122.214494 318 17ft 0kts
04-Feb-21 20:23 37.711092 -122.214494 318 17ft 0kts
04-Feb-21 20:24 37.711092 -122.214494 318 17ft 0kts
04-Feb-21 20:25 37.711092 -122.214494 318 17ft 0kts
04-Feb-21 20:26 37.710849 -122.214220 318 17ft 2kts
04-Feb-21 20:27 37.710680 -122.213764 219 17ft 1kts
04-Feb-21 20:28 37.710684 -122.213760 219 17ft 0kts
04-Feb-21 20:29 37.710257 -122.214217 220 17ft 5kts
04-Feb-21 20:30 37.707866 -122.216724 220 16ft 15kts
04-Feb-21 20:31 37.704650 -122.215251 129 16ft 17kts
04-Feb-21 20:32 37.702077 -122.213754 220 16ft 10kts
04-Feb-21 20:33 37.708402 -122.224594 310 16ft 143kts
04-Feb-21 20:34 37.738390 -122.270186 315 2288ft 179kts
04-Feb-21 20:35 37.797861 -122.275746 7 4329ft 239kts
04-Feb-21 20:36 37.863195 -122.255774 13 7707ft 253kts
04-Feb-21 20:37 37.933769 -122.234386 12 10537ft 286kts
04-Feb-21 20:38 38.019461 -122.208491 11 12922ft 329kts
04-Feb-21 20:39 38.110097 -122.181040 11 16042ft 343kts
04-Feb-21 20:40 38.204428 -122.152509 11 18901ft 356kts
04-Feb-21 20:41 38.302767 -122.122768 11 21400ft 371kts
04-Feb-21 20:42 38.405708 -122.113130 353 23635ft 381kts
04-Feb-21 20:43 38.513335 -122.124088 355 25685ft 393kts
04-Feb-21 20:44 38.623726 -122.132365 356 27570ft 402kts
04-Feb-21 20:45 38.736739 -122.140349 356 29244ft 412kts
04-Feb-21 20:46 38.851325 -122.148298 356 31085ft 412kts
04-Feb-21 20:47 38.965245 -122.156198 356 32944ft 407kts
04-Feb-21 20:48 39.077834 -122.164018 356 34629ft 404kts
04-Feb-21 20:49 39.189102 -122.171765 356 36199ft 400kts
04-Feb-21 20:50 39.300284 -122.179561 356 37490ft 400kts
04-Feb-21 20:51 39.411753 -122.187376 355 38660ft 400kts
04-Feb-21 20:52 39.522116 -122.195161 355 39683ft 400kts
04-Feb-21 20:53 39.631758 -122.202941 355 40326ft 407kts
04-Feb-21 20:54 39.745052 -122.210929 355 40328ft 405kts
04-Feb-21 20:55 39.856778 -122.218853 355 40329ft 406kts
04-Feb-21 20:56 39.969373 -122.226882 355 40329ft 405kts
04-Feb-21 20:57 40.081361 -122.231545 1 40329ft 407kts
04-Feb-21 20:58 40.194224 -122.211814 6 40330ft 410kts
04-Feb-21 20:59 40.305448 -122.186273 7 40337ft 410kts
04-Feb-21 21:00 40.417486 -122.159497 7 40338ft 409kts
04-Feb-21 21:01 40.528681 -122.132708 7 40342ft 409kts
04-Feb-21 21:02 40.640124 -122.105793 7 40345ft 408kts
04-Feb-21 21:03 40.751980 -122.078589 6 40376ft 409kts
04-Feb-21 21:04 40.863495 -122.051303 6 40390ft 409kts
04-Feb-21 21:05 40.974985 -122.023864 6 40388ft 408kts
04-Feb-21 21:06 41.086493 -121.996382 6 40386ft 407kts
04-Feb-21 21:07 41.195517 -121.969242 6 40381ft 403kts
04-Feb-21 21:08 41.305929 -121.941792 6 40379ft 403kts
04-Feb-21 21:09 41.416683 -121.914192 6 40395ft 403kts
04-Feb-21 21:10 41.527272 -121.886557 5 40402ft 404kts
04-Feb-21 21:11 41.637859 -121.858741 5 40395ft 404kts
04-Feb-21 21:12 41.748322 -121.831607 5 40403ft 403kts
04-Feb-21 21:13 41.858415 -121.803974 5 40398ft 404kts
04-Feb-21 21:14 41.968506 -121.775986 5 40405ft 404kts
04-Feb-21 21:15 42.078956 -121.748283 5 40403ft 403kts
04-Feb-21 21:16 42.187437 -121.739893 352 40402ft 396kts
04-Feb-21 21:17 42.295702 -121.759996 347 40402ft 393kts
04-Feb-21 21:18 42.403782 -121.784460 347 40402ft 393kts
04-Feb-21 21:19 42.510868 -121.808855 347 40402ft 391kts
04-Feb-21 21:20 42.617906 -121.833356 347 40402ft 391kts
04-Feb-21 21:21 42.725079 -121.857953 346 40403ft 389kts
04-Feb-21 21:22 42.831444 -121.882464 346 40402ft 388kts
04-Feb-21 21:23 42.937538 -121.907015 346 40403ft 387kts
04-Feb-21 21:24 43.043445 -121.931575 346 40404ft 385kts
04-Feb-21 21:25 43.146810 -121.955656 346 40401ft 385kts
04-Feb-21 21:26 43.252263 -121.980275 346 40401ft 384kts
04-Feb-21 21:27 43.357156 -122.004891 346 40408ft 384kts
04-Feb-21 21:28 43.462542 -122.029968 346 40416ft 385kts
04-Feb-21 21:29 43.566822 -122.054677 346 40424ft 384kts
04-Feb-21 21:30 43.672056 -122.079626 346 40431ft 383kts
04-Feb-21 21:31 43.777081 -122.104599 346 40432ft 383kts
04-Feb-21 21:32 43.881313 -122.129476 345 40435ft 382kts
04-Feb-21 21:34 43.985645 -122.154466 345 40445ft 382kts
04-Feb-21 21:35 44.089363 -122.179394 345 40448ft 382kts
04-Feb-21 21:36 44.192411 -122.204251 345 40448ft 382kts
04-Feb-21 21:37 44.297041 -122.229578 345 40448ft 382kts
04-Feb-21 21:38 44.400888 -122.254829 345 40444ft 383kts
04-Feb-21 21:39 44.506090 -122.280468 345 40439ft 383kts
04-Feb-21 21:40 44.609006 -122.306337 345 40429ft 383kts
04-Feb-21 21:41 44.704383 -122.329797 345 40436ft 384kts
04-Feb-21 21:42 44.811407 -122.356045 345 40439ft 384kts
04-Feb-21 21:43 44.916523 -122.381585 345 40439ft 383kts
04-Feb-21 21:44 45.020786 -122.407377 345 40436ft 384kts
04-Feb-21 21:45 45.123900 -122.433041 345 40430ft 384kts
04-Feb-21 21:46 45.229313 -122.459416 345 40430ft 385kts
04-Feb-21 21:47 45.334159 -122.486125 345 40429ft 382kts
04-Feb-21 21:48 45.437299 -122.512355 344 40430ft 384kts
04-Feb-21 21:49 45.542355 -122.538976 344 40419ft 383kts
04-Feb-21 21:49 45.628127 -122.560754 344 40411ft 384kts
04-Feb-21 21:51 45.745709 -122.590705 344 40411ft 382kts
04-Feb-21 21:51 45.832667 -122.612392 344 40413ft 383kts
04-Feb-21 21:52 45.937022 -122.639061 344 39433ft 382kts
04-Feb-21 21:54 46.058479 -122.669831 343 35216ft 379kts
04-Feb-21 21:54 46.138159 -122.687543 345 33149ft 351kts
04-Feb-21 21:55 46.239951 -122.707557 345 30283ft 379kts
04-Feb-21 21:56 46.342038 -122.723335 350 27920ft 362kts
04-Feb-21 21:57 46.439736 -122.726544 350 25876ft 338kts
04-Feb-21 21:58 46.531135 -122.729701 349 23873ft 319kts
04-Feb-21 21:59 46.617189 -122.732800 349 21980ft 301kts
04-Feb-21 22:00 46.698158 -122.735745 349 20202ft 294kts
04-Feb-21 22:01 46.781266 -122.727680 6 18448ft 302kts
04-Feb-21 22:02 46.853755 -122.658146 25 16527ft 319kts
04-Feb-21 22:03 46.921881 -122.580313 22 15130ft 293kts
04-Feb-21 22:04 46.991429 -122.538398 3 14274ft 264kts
04-Feb-21 22:05 47.060119 -122.509076 5 13145ft 264kts
04-Feb-21 22:06 47.130385 -122.491054 357 11788ft 253kts
04-Feb-21 22:07 47.199886 -122.478768 358 10214ft 262kts
04-Feb-21 22:08 47.274024 -122.467464 359 8681ft 264kts
04-Feb-21 22:09 47.345288 -122.456610 359 8015ft 248kts
04-Feb-21 22:10 47.410811 -122.455410 352 7243ft 236kts
04-Feb-21 22:11 47.475762 -122.455556 353 6240ft 234kts
04-Feb-21 22:12 47.539803 -122.455728 353 5261ft 223kts
04-Feb-21 22:13 47.602386 -122.457053 355 3892ft 228kts
04-Feb-21 22:14 47.645859 -122.407779 83 3026ft 229kts
04-Feb-21 22:15 47.641572 -122.321408 140 3024ft 209kts
04-Feb-21 22:16 47.593349 -122.305885 183 2979ft 177kts
04-Feb-21 22:17 47.549761 -122.306874 182 2141ft 129kts
04-Feb-21 22:18 47.513807 -122.307298 183 1434ft 133kts
04-Feb-21 22:19 47.478435 -122.307482 183 795ft 123kts
04-Feb-21 22:20 47.449991 -122.307875 181 442ft 40kts
04-Feb-21 22:21 47.445029 -122.306350 181 442ft 11kts
04-Feb-21 22:22 47.440930 -122.306384 181 442ft 18kts
04-Feb-21 22:23 47.440725 -122.302500 14 442ft 12kts
04-Feb-21 22:24 47.441350 -122.303064 289 442ft 0kts
04-Feb-21 22:25 47.441350 -122.303064 289 442ft 0kts

Navigation Log

Ident Type
Flight plan parsing failed, navigation log unavailable